Time;durP1;ratioP1;P1;durP2;ratioP2;P2;SDS_P1;SDS_P2;PMS_P1;PMS_P2;Temp;Humidity;BMP_temperature;BMP_pressure;BME280_temperature;BME280_humidity;BME280_pressure;Samples;Min_cycle;Max_cycle;Signal;HPM_P1;HPM_P2
2023/05/27 00:01:21;;;;;;;;;;;15.90;99.90;;;;;;20905665;28;19972;-75
2023/05/27 00:11:22;;;;;;;;;;;16.00;99.90;;;;;;20914509;28;19955;-75
2023/05/27 00:21:22;;;;;;;;;;;15.80;99.90;;;;;;20918078;28;19913;-75
2023/05/27 00:31:23;;;;;;;;;;;15.30;99.90;;;;;;20895093;28;20358;-74
2023/05/27 00:41:26;;;;;;;;;;;15.20;99.90;;;;;;20911836;28;19959;-76
2023/05/27 00:51:26;;;;;;;;;;;15.00;99.90;;;;;;20910952;28;19909;-76
2023/05/27 01:01:28;;;;;;;;;;;15.20;99.90;;;;;;20892383;28;19919;-75
2023/05/27 01:11:32;;;;;;;;;;;15.00;99.90;;;;;;20891714;28;19913;-75
2023/05/27 01:21:36;;;;;;;;;;;15.20;99.90;;;;;;20891494;28;19912;-75
2023/05/27 01:31:49;;;;;;;;;;;14.70;99.90;;;;;;20908426;28;19916;-75
2023/05/27 01:41:50;;;;;;;;;;;14.90;99.90;;;;;;20890213;28;19921;-75
2023/05/27 01:51:51;;;;;;;;;;;15.00;99.90;;;;;;20890336;28;20291;-76
2023/05/27 02:01:51;;;;;;;;;;;15.00;99.90;;;;;;20919072;28;19912;-75
2023/05/27 02:11:52;;;;;;;;;;;14.70;99.90;;;;;;20915044;28;19912;-76
2023/05/27 02:21:53;;;;;;;;;;;14.50;99.90;;;;;;20905508;28;19979;-75
2023/05/27 02:31:53;;;;;;;;;;;14.30;99.90;;;;;;20904439;28;19960;-75
2023/05/27 02:41:54;;;;;;;;;;;14.30;99.90;;;;;;20921043;28;19916;-75
2023/05/27 02:51:55;;;;;;;;;;;13.80;99.90;;;;;;20920496;28;19909;-75
2023/05/27 03:01:55;;;;;;;;;;;13.60;99.90;;;;;;20902186;28;19913;-75
2023/05/27 03:11:56;;;;;;;;;;;13.40;99.90;;;;;;20900729;28;19962;-75
2023/05/27 03:21:57;;;;;;;;;;;13.20;99.90;;;;;;20900362;28;19924;-75
2023/05/27 03:32:00;;;;;;;;;;;13.00;99.90;;;;;;20905607;28;19944;-76
2023/05/27 03:42:01;;;;;;;;;;;13.00;99.90;;;;;;20918560;28;20283;-75
2023/05/27 03:52:02;;;;;;;;;;;12.90;99.90;;;;;;20865678;28;19912;-75
2023/05/27 04:02:04;;;;;;;;;;;12.60;99.90;;;;;;20908839;28;19913;-75
2023/05/27 04:12:06;;;;;;;;;;;12.50;99.90;;;;;;20909999;28;19959;-75
2023/05/27 04:22:06;;;;;;;;;;;12.70;99.90;;;;;;20890540;28;19925;-75
2023/05/27 04:32:09;;;;;;;;;;;12.80;99.90;;;;;;20891783;28;20378;-74
2023/05/27 04:42:10;;;;;;;;;;;12.40;99.90;;;;;;20907782;28;19996;-75
2023/05/27 04:52:17;;;;;;;;;;;12.80;99.90;;;;;;20896250;28;19916;-74
2023/05/27 05:02:34;;;;;;;;;;;13.10;99.90;;;;;;20888160;28;19912;-77
2023/05/27 05:12:41;;;;;;;;;;;13.10;99.90;;;;;;20887555;28;19920;-76
2023/05/27 05:22:42;;;;;;;;;;;13.70;99.90;;;;;;20886711;28;19961;-76
2023/05/27 05:32:45;;;;;;;;;;;14.10;99.90;;;;;;20886576;28;19909;-76
2023/05/27 05:42:45;;;;;;;;;;;14.30;99.90;;;;;;20885770;28;19913;-76
2023/05/27 05:52:46;;;;;;;;;;;14.60;99.90;;;;;;20885408;28;20283;-76
2023/05/27 06:02:47;;;;;;;;;;;15.10;99.90;;;;;;20885600;28;20027;-76
2023/05/27 06:13:10;;;;;;;;;;;15.50;99.90;;;;;;20903537;28;19920;-76
2023/05/27 06:23:12;;;;;;;;;;;15.90;99.90;;;;;;20885649;28;20329;-74
2023/05/27 06:33:31;;;;;;;;;;;16.40;99.90;;;;;;20903329;28;20649;-74
2023/05/27 06:43:32;;;;;;;;;;;16.50;99.90;;;;;;20885162;28;19998;-74
2023/05/27 06:53:52;;;;;;;;;;;17.20;99.90;;;;;;20898461;28;19931;-74
2023/05/27 07:03:58;;;;;;;;;;;17.70;99.90;;;;;;20897563;28;19919;-74
2023/05/27 07:14:11;;;;;;;;;;;18.30;99.90;;;;;;20900149;28;19912;-75
2023/05/27 07:24:15;;;;;;;;;;;19.00;99.90;;;;;;20895839;28;19993;-75
2023/05/27 07:34:16;;;;;;;;;;;19.60;99.90;;;;;;20895110;28;19951;-74
2023/05/27 07:44:17;;;;;;;;;;;20.00;99.90;;;;;;20894617;28;19913;-75
2023/05/27 07:54:18;;;;;;;;;;;20.40;99.90;;;;;;20888659;28;20029;-75
2023/05/27 08:04:19;;;;;;;;;;;20.80;99.90;;;;;;20902356;28;20114;-75
2023/05/27 08:14:43;;;;;;;;;;;21.00;99.90;;;;;;20909911;28;20398;-75
2023/05/27 08:25:00;;;;;;;;;;;21.50;99.90;;;;;;20893418;28;19917;-75
2023/05/27 08:35:18;;;;;;;;;;;22.00;99.90;;;;;;20896401;28;19913;-75
2023/05/27 08:45:19;;;;;;;;;;;22.50;99.90;;;;;;20890444;28;19943;-75
2023/05/27 08:55:21;;;;;;;;;;;23.10;99.90;;;;;;20890330;28;19917;-74
2023/05/27 09:05:22;;;;;;;;;;;23.00;99.90;;;;;;20889097;28;19955;-74
2023/05/27 09:15:23;;;;;;;;;;;23.50;99.90;;;;;;20915315;28;19916;-76
2023/05/27 09:25:24;;;;;;;;;;;24.00;99.90;;;;;;20888583;28;19948;-76
2023/05/27 09:35:25;;;;;;;;;;;25.20;99.90;;;;;;20905517;28;20019;-74
2023/05/27 09:45:27;;;;;;;;;;;25.80;99.90;;;;;;20905440;28;19997;-74
2023/05/27 09:55:28;;;;;;;;;;;25.70;99.90;;;;;;20905269;28;19919;-75
2023/05/27 10:05:30;;;;;;;;;;;25.70;99.90;;;;;;20904308;28;19998;-76
2023/05/27 10:15:31;;;;;;;;;;;25.20;98.40;;;;;;20908818;28;19917;-75
2023/05/27 10:25:35;;;;;;;;;;;26.10;96.70;;;;;;20916947;28;20295;-76
2023/05/27 10:35:41;;;;;;;;;;;26.20;95.30;;;;;;20900354;28;19957;-75
2023/05/27 10:45:41;;;;;;;;;;;25.80;94.60;;;;;;20917717;28;20288;-74
2023/05/27 10:55:42;;;;;;;;;;;26.10;94.00;;;;;;20898819;28;19988;-75
2023/05/27 11:05:43;;;;;;;;;;;26.70;93.80;;;;;;20916132;28;19959;-75
2023/05/27 11:15:44;;;;;;;;;;;27.10;94.20;;;;;;20897487;28;19917;-75
2023/05/27 11:25:44;;;;;;;;;;;26.90;92.80;;;;;;20911594;28;19909;-76
2023/05/27 11:35:45;;;;;;;;;;;27.10;91.70;;;;;;20908909;28;19919;-74
2023/05/27 11:45:46;;;;;;;;;;;26.90;92.20;;;;;;20914355;28;20348;-74
2023/05/27 11:55:46;;;;;;;;;;;27.40;91.90;;;;;;20913021;28;19955;-75
2023/05/27 12:05:47;;;;;;;;;;;27.70;91.50;;;;;;20905735;28;19981;-76
2023/05/27 12:15:48;;;;;;;;;;;28.20;91.40;;;;;;20888205;28;19948;-75
2023/05/27 12:25:48;;;;;;;;;;;28.00;90.00;;;;;;20909620;28;20002;-75
2023/05/27 12:35:49;;;;;;;;;;;28.20;90.70;;;;;;20902272;28;19952;-75
2023/05/27 12:45:50;;;;;;;;;;;28.20;90.10;;;;;;20863718;28;19912;-75
2023/05/27 12:55:51;;;;;;;;;;;28.10;90.50;;;;;;20869763;28;19917;-75
2023/05/27 13:05:52;;;;;;;;;;;28.10;90.20;;;;;;20975525;28;20407;-75
2023/05/27 13:15:53;;;;;;;;;;;28.20;89.40;;;;;;20907445;28;19912;-75
2023/05/27 13:25:54;;;;;;;;;;;28.60;89.90;;;;;;20904670;28;19919;-75
2023/05/27 13:35:54;;;;;;;;;;;28.50;90.80;;;;;;20906054;28;20019;-75
2023/05/27 13:45:55;;;;;;;;;;;27.60;91.20;;;;;;20914306;28;20360;-75
2023/05/27 13:55:56;;;;;;;;;;;27.90;91.40;;;;;;20910391;28;20328;-75
2023/05/27 14:05:57;;;;;;;;;;;28.80;90.10;;;;;;20912612;28;19939;-75
2023/05/27 14:15:57;;;;;;;;;;;28.60;87.00;;;;;;20915579;28;19912;-75
2023/05/27 14:25:58;;;;;;;;;;;28.60;89.20;;;;;;20919192;28;19920;-75
2023/05/27 14:35:59;;;;;;;;;;;28.50;88.50;;;;;;20918595;28;20398;-75
2023/05/27 14:46:00;;;;;;;;;;;28.20;88.40;;;;;;20917778;28;19998;-75
2023/05/27 14:56:00;;;;;;;;;;;26.90;90.10;;;;;;20917216;28;19960;-74
2023/05/27 15:06:01;;;;;;;;;;;28.20;88.30;;;;;;20916872;28;19956;-74
2023/05/27 15:16:02;;;;;;;;;;;27.90;90.30;;;;;;20915756;28;19913;-74
2023/05/27 15:26:03;;;;;;;;;;;27.60;89.10;;;;;;20919947;28;19952;-74
2023/05/27 15:36:03;;;;;;;;;;;27.40;89.80;;;;;;20895597;28;20022;-74
2023/05/27 15:46:05;;;;;;;;;;;27.10;90.00;;;;;;20895026;28;20019;-74
2023/05/27 15:56:06;;;;;;;;;;;26.80;90.30;;;;;;20894015;28;19970;-74
2023/05/27 16:06:07;;;;;;;;;;;26.10;91.80;;;;;;20911457;28;20217;-74
2023/05/27 16:16:08;;;;;;;;;;;26.10;91.20;;;;;;20909462;28;19913;-74
2023/05/27 16:26:08;;;;;;;;;;;25.90;91.70;;;;;;20910041;28;19942;-74
2023/05/27 16:36:09;;;;;;;;;;;25.40;92.20;;;;;;20909143;28;19920;-74
2023/05/27 16:46:10;;;;;;;;;;;25.10;92.80;;;;;;20932163;28;19909;-74
2023/05/27 16:56:10;;;;;;;;;;;25.20;93.30;;;;;;20926151;28;20003;-74
2023/05/27 17:06:11;;;;;;;;;;;24.50;93.60;;;;;;20914079;28;20034;-74
2023/05/27 17:16:12;;;;;;;;;;;24.60;94.70;;;;;;20935030;28;19916;-74
2023/05/27 17:26:13;;;;;;;;;;;24.50;94.30;;;;;;20940399;28;20284;-74
2023/05/27 17:36:13;;;;;;;;;;;24.10;95.10;;;;;;20909294;28;19948;-74
2023/05/27 17:46:14;;;;;;;;;;;23.60;95.80;;;;;;20913225;28;19909;-74
2023/05/27 17:56:15;;;;;;;;;;;23.80;97.10;;;;;;20931691;28;19935;-75
2023/05/27 18:06:16;;;;;;;;;;;24.40;96.20;;;;;;20946106;28;19921;-75
2023/05/27 18:16:16;;;;;;;;;;;24.60;96.10;;;;;;20925440;28;19959;-74
2023/05/27 18:26:17;;;;;;;;;;;23.30;98.60;;;;;;20948434;28;19978;-74
2023/05/27 18:36:18;;;;;;;;;;;21.90;99.90;;;;;;20940766;28;20368;-74
2023/05/27 18:46:18;;;;;;;;;;;21.10;99.90;;;;;;20949864;28;19915;-75
2023/05/27 18:56:20;;;;;;;;;;;20.50;99.90;;;;;;20956929;28;20364;-75
2023/05/27 19:06:21;;;;;;;;;;;20.00;99.90;;;;;;20958341;28;20012;-75
2023/05/27 19:16:22;;;;;;;;;;;19.80;99.90;;;;;;20964210;28;20303;-75
2023/05/27 19:26:23;;;;;;;;;;;19.20;99.90;;;;;;20967655;28;19908;-76
2023/05/27 19:36:23;;;;;;;;;;;18.90;99.90;;;;;;20951369;28;19913;-75
2023/05/27 19:46:24;;;;;;;;;;;18.70;99.90;;;;;;20956162;28;20338;-76
2023/05/27 19:56:25;;;;;;;;;;;18.20;99.90;;;;;;20951327;28;19955;-76
2023/05/27 20:06:26;;;;;;;;;;;17.80;99.90;;;;;;20949508;28;19939;-74
2023/05/27 20:16:27;;;;;;;;;;;17.80;99.90;;;;;;21003565;28;20414;-74
2023/05/27 20:26:28;;;;;;;;;;;17.70;99.90;;;;;;20917989;28;19966;-75
2023/05/27 20:36:29;;;;;;;;;;;17.70;99.90;;;;;;20897018;28;19913;-75
2023/05/27 20:46:30;;;;;;;;;;;17.40;99.90;;;;;;20915149;28;19908;-74
2023/05/27 20:56:31;;;;;;;;;;;17.40;99.90;;;;;;20911631;28;19916;-74
2023/05/27 21:06:31;;;;;;;;;;;17.10;99.90;;;;;;20910256;28;19916;-75
2023/05/27 21:16:32;;;;;;;;;;;16.90;99.90;;;;;;20910155;28;19920;-74
2023/05/27 21:26:33;;;;;;;;;;;16.60;99.90;;;;;;20909740;28;20007;-74
2023/05/27 21:36:33;;;;;;;;;;;16.50;99.90;;;;;;20894178;28;19920;-75
2023/05/27 21:46:34;;;;;;;;;;;16.10;99.90;;;;;;20890670;28;20282;-75
2023/05/27 21:56:35;;;;;;;;;;;16.00;99.90;;;;;;20911338;28;20007;-74
2023/05/27 22:06:39;;;;;;;;;;;15.90;99.90;;;;;;20910834;28;20367;-74
2023/05/27 22:16:40;;;;;;;;;;;15.90;99.90;;;;;;20912540;28;19913;-74
2023/05/27 22:26:41;;;;;;;;;;;16.00;99.90;;;;;;20923385;28;19912;-74
2023/05/27 22:36:42;;;;;;;;;;;16.30;99.90;;;;;;20922475;28;19913;-74
2023/05/27 22:46:43;;;;;;;;;;;16.10;99.90;;;;;;20921882;28;19908;-75
2023/05/27 22:56:44;;;;;;;;;;;16.10;99.90;;;;;;20920820;28;19959;-74
2023/05/27 23:06:44;;;;;;;;;;;16.10;99.90;;;;;;20920700;28;19912;-74
2023/05/27 23:16:45;;;;;;;;;;;16.10;99.90;;;;;;20919635;28;19919;-75
2023/05/27 23:26:46;;;;;;;;;;;15.50;99.90;;;;;;20918256;28;19908;-76
2023/05/27 23:36:47;;;;;;;;;;;15.40;99.90;;;;;;20917732;28;20394;-75
2023/05/27 23:46:48;;;;;;;;;;;15.20;99.90;;;;;;20902667;28;19908;-74
2023/05/27 23:56:51;;;;;;;;;;;15.20;99.90;;;;;;20916842;28;20444;-74
